createdAt,value
2023-05-06T00:00:20.040Z,3.93
2023-05-06T00:02:47.308Z,4.02
2023-05-06T00:05:14.411Z,3.98
2023-05-06T00:07:42.025Z,3.99
2023-05-06T00:10:09.458Z,3.97
2023-05-06T00:12:36.772Z,3.68
2023-05-06T00:15:04.795Z,3.88
2023-05-06T00:17:32.120Z,3.79
2023-05-06T00:19:59.284Z,3.79
2023-05-06T00:22:26.440Z,3.75
2023-05-06T00:24:53.475Z,3.76
2023-05-06T00:27:20.594Z,3.61
2023-05-06T00:29:47.592Z,3.68
2023-05-06T00:32:14.752Z,3.64
2023-05-06T00:34:41.961Z,3.58
2023-05-06T00:37:09.021Z,3.50
2023-05-06T00:39:36.254Z,3.45
2023-05-06T00:42:03.617Z,3.34
2023-05-06T00:44:31.966Z,3.53
2023-05-06T00:47:01.049Z,3.38
2023-05-06T00:49:29.517Z,3.39
2023-05-06T00:51:57.899Z,3.32
2023-05-06T00:54:26.794Z,3.17
2023-05-06T00:56:54.230Z,3.32
2023-05-06T00:59:22.751Z,2.95
2023-05-06T01:01:52.319Z,3.19
2023-05-06T01:04:20.263Z,3.18
2023-05-06T01:07:28.817Z,3.23
2023-05-06T01:10:14.046Z,3.23
2023-05-06T01:13:09.971Z,3.21
2023-05-06T01:15:45.646Z,3.19
2023-05-06T01:18:17.256Z,3.04
2023-05-06T01:20:52.826Z,3.13
2023-05-06T01:23:21.316Z,3.10
2023-05-06T01:25:48.490Z,3.11
2023-05-06T01:28:17.569Z,3.07
2023-05-06T01:30:53.823Z,3.01
2023-05-06T01:33:28.651Z,3.03
2023-05-06T01:36:21.678Z,2.99
2023-05-06T01:39:02.628Z,2.95
2023-05-06T01:41:33.638Z,2.83
2023-05-06T01:44:01.918Z,2.88
2023-05-06T01:46:30.517Z,2.86
2023-05-06T01:49:01.380Z,2.86
2023-05-06T01:51:28.499Z,2.98
2023-05-06T01:53:55.613Z,2.94
2023-05-06T01:56:23.267Z,2.82
2023-05-06T01:58:50.744Z,2.91
2023-05-06T02:01:17.859Z,2.86
2023-05-06T02:03:45.031Z,2.89
2023-05-06T02:06:12.287Z,2.81
2023-05-06T02:08:40.850Z,2.87
2023-05-06T02:11:10.765Z,2.89
2023-05-06T02:13:38.416Z,2.88
2023-05-06T02:16:09.002Z,2.82
2023-05-06T02:18:36.971Z,2.89
2023-05-06T02:21:04.426Z,2.83
2023-05-06T02:23:31.455Z,2.97
2023-05-06T02:25:59.096Z,2.99
2023-05-06T02:28:26.346Z,2.91
2023-05-06T02:30:57.651Z,2.95
2023-05-06T02:33:25.338Z,2.96
2023-05-06T02:35:52.491Z,3.12
2023-05-06T02:38:19.973Z,3.17
2023-05-06T02:40:47.107Z,3.09
2023-05-06T02:43:14.076Z,3.10
2023-05-06T02:45:41.223Z,3.15
2023-05-06T02:48:08.359Z,3.07
2023-05-06T02:50:37.188Z,3.08
2023-05-06T02:53:04.245Z,2.90
2023-05-06T02:55:31.422Z,3.13
2023-05-06T02:57:58.502Z,3.12
2023-05-06T03:00:25.600Z,3.17
2023-05-06T03:02:52.784Z,3.20
2023-05-06T03:05:19.880Z,2.89
2023-05-06T03:07:47.062Z,3.23
2023-05-06T03:10:15.008Z,3.23
2023-05-06T03:12:42.600Z,3.26
2023-05-06T03:15:10.298Z,3.33
2023-05-06T03:17:38.641Z,3.33
2023-05-06T03:20:08.811Z,3.30
2023-05-06T03:22:38.436Z,3.34
2023-05-06T03:25:06.153Z,3.43
2023-05-06T03:27:35.150Z,3.49
2023-05-06T03:30:09.727Z,3.46
2023-05-06T03:32:38.350Z,3.41
2023-05-06T03:35:09.133Z,3.49
2023-05-06T03:37:36.767Z,3.46
2023-05-06T03:40:04.909Z,3.43
2023-05-06T03:42:33.159Z,3.49
2023-05-06T03:45:02.809Z,3.55
2023-05-06T03:47:33.027Z,3.49
2023-05-06T03:50:01.870Z,3.69
2023-05-06T03:52:31.849Z,3.69
2023-05-06T03:54:59.962Z,3.67
2023-05-06T03:57:28.544Z,3.76
2023-05-06T03:59:56.081Z,3.81
2023-05-06T04:02:24.438Z,3.81
2023-05-06T04:04:51.984Z,3.88
2023-05-06T04:07:19.001Z,3.98
2023-05-06T04:09:46.003Z,4.18
2023-05-06T04:12:13.008Z,4.24
2023-05-06T04:14:40.119Z,4.35
2023-05-06T04:17:08.311Z,4.34
2023-05-06T04:19:35.448Z,4.37
2023-05-06T04:22:03.115Z,4.47
2023-05-06T04:24:31.403Z,4.46
2023-05-06T04:26:59.131Z,4.64
2023-05-06T04:29:27.169Z,4.68
2023-05-06T04:31:58.848Z,4.63
2023-05-06T04:34:28.998Z,4.67
2023-05-06T04:36:59.731Z,4.88
2023-05-06T04:39:48.972Z,4.92
2023-05-06T04:42:16.876Z,5.03
2023-05-06T04:44:52.906Z,5.06
2023-05-06T04:47:24.689Z,5.05
2023-05-06T04:49:53.076Z,5.00
2023-05-06T04:52:21.196Z,4.88
2023-05-06T04:54:48.668Z,4.91
2023-05-06T04:57:16.022Z,4.96
2023-05-06T04:59:44.991Z,4.99
2023-05-06T05:02:12.311Z,4.89
2023-05-06T05:04:41.771Z,4.96
2023-05-06T05:07:09.292Z,4.97
2023-05-06T05:09:36.747Z,5.07
2023-05-06T05:12:04.223Z,5.12
2023-05-06T05:14:35.232Z,5.01
2023-05-06T05:17:02.783Z,5.26
2023-05-06T05:19:30.020Z,5.32
2023-05-06T05:21:57.435Z,5.31
2023-05-06T05:24:26.539Z,5.24
2023-05-06T05:26:53.588Z,4.90
2023-05-06T05:29:20.878Z,5.19
2023-05-06T05:31:48.784Z,5.06
2023-05-06T05:34:16.122Z,5.06
2023-05-06T05:36:43.412Z,5.06
2023-05-06T05:39:12.967Z,5.11
2023-05-06T05:41:44.511Z,5.26
2023-05-06T05:44:12.426Z,5.45
2023-05-06T05:46:40.911Z,5.44
2023-05-06T05:49:09.343Z,5.43
2023-05-06T05:51:36.509Z,5.53
2023-05-06T05:54:05.771Z,5.57
2023-05-06T05:56:33.345Z,5.57
2023-05-06T05:59:00.984Z,5.64
2023-05-06T06:01:28.667Z,5.78
2023-05-06T06:03:56.621Z,5.81
2023-05-06T06:06:24.564Z,5.74
2023-05-06T06:08:52.233Z,5.72
2023-05-06T06:11:20.200Z,5.77
2023-05-06T06:13:47.306Z,5.68
2023-05-06T06:16:14.541Z,5.81
2023-05-06T06:18:41.689Z,5.71
2023-05-06T06:21:08.876Z,5.70
2023-05-06T06:23:36.367Z,5.79
2023-05-06T06:26:04.731Z,5.85
2023-05-06T06:28:33.523Z,5.89
2023-05-06T06:31:02.102Z,5.84
2023-05-06T06:33:29.268Z,5.98
2023-05-06T06:35:56.271Z,5.98
2023-05-06T06:38:23.326Z,6.01
2023-05-06T06:40:50.452Z,5.99
2023-05-06T06:43:19.924Z,6.00
2023-05-06T06:45:59.481Z,6.07
2023-05-06T06:48:26.662Z,6.09
2023-05-06T06:50:53.761Z,6.13
2023-05-06T06:53:20.993Z,6.21
2023-05-06T06:55:48.073Z,6.34
2023-05-06T06:58:15.127Z,6.40
2023-05-06T07:00:43.866Z,6.41
2023-05-06T07:03:11.257Z,6.36
2023-05-06T07:05:38.400Z,6.44
2023-05-06T07:08:05.791Z,6.62
2023-05-06T07:10:32.876Z,6.58
2023-05-06T07:12:59.993Z,6.67
2023-05-06T07:15:27.115Z,6.65
2023-05-06T07:17:54.168Z,6.67
2023-05-06T07:20:21.391Z,6.70
2023-05-06T07:22:48.467Z,6.60
2023-05-06T07:25:15.594Z,6.39
2023-05-06T07:27:42.650Z,6.41
2023-05-06T07:30:10.060Z,6.33
2023-05-06T07:32:37.368Z,6.27
2023-05-06T07:35:05.817Z,5.87
2023-05-06T07:37:33.319Z,6.19
2023-05-06T07:40:00.410Z,6.12
2023-05-06T07:42:27.486Z,6.24
2023-05-06T07:44:54.554Z,6.31
2023-05-06T07:47:29.768Z,6.33
2023-05-06T07:49:57.328Z,6.29
2023-05-06T07:52:24.942Z,6.37
2023-05-06T07:54:53.541Z,6.44
2023-05-06T07:57:21.073Z,6.44
2023-05-06T07:59:49.779Z,6.63
2023-05-06T08:02:17.281Z,6.64
2023-05-06T08:04:45.292Z,6.67
2023-05-06T08:07:12.630Z,6.85
2023-05-06T08:09:39.649Z,6.94
2023-05-06T08:12:07.418Z,6.97
2023-05-06T08:14:34.531Z,7.00
2023-05-06T08:17:01.700Z,7.06
2023-05-06T08:19:29.050Z,7.06
2023-05-06T08:21:56.342Z,7.25
2023-05-06T08:24:23.419Z,7.44
2023-05-06T08:26:50.459Z,7.45
2023-05-06T08:29:17.559Z,7.59
2023-05-06T08:31:44.750Z,6.93
2023-05-06T08:34:11.763Z,7.70
2023-05-06T08:36:38.911Z,7.73
2023-05-06T08:39:06.156Z,7.70
2023-05-06T08:41:36.226Z,7.87
2023-05-06T08:44:05.329Z,7.93
2023-05-06T08:46:32.387Z,7.88
2023-05-06T08:49:00.261Z,7.88
2023-05-06T08:51:31.757Z,7.95
2023-05-06T08:54:05.041Z,7.90
2023-05-06T08:56:34.053Z,8.10
2023-05-06T08:59:01.581Z,8.34
2023-05-06T09:01:29.253Z,8.53
2023-05-06T09:03:58.283Z,8.51
2023-05-06T09:06:25.634Z,8.59
2023-05-06T09:08:52.773Z,8.72
2023-05-06T09:11:25.005Z,8.92
2023-05-06T09:14:08.414Z,9.25
2023-05-06T09:16:35.653Z,9.34
2023-05-06T09:19:03.228Z,9.31
2023-05-06T09:21:33.957Z,9.49
2023-05-06T09:24:02.192Z,9.25
2023-05-06T09:26:31.602Z,9.36
2023-05-06T09:29:00.013Z,9.41
2023-05-06T09:31:28.867Z,8.96
2023-05-06T09:33:57.552Z,9.23
2023-05-06T09:36:27.501Z,9.31
2023-05-06T09:38:55.834Z,9.31
2023-05-06T09:41:27.589Z,9.24
2023-05-06T09:43:56.401Z,9.16
2023-05-06T09:46:25.021Z,8.83
2023-05-06T09:48:53.400Z,8.96
2023-05-06T09:51:21.295Z,9.08
2023-05-06T09:53:48.863Z,9.11
2023-05-06T09:56:16.576Z,9.12
2023-05-06T09:58:43.836Z,9.11
2023-05-06T10:01:17.086Z,9.10
2023-05-06T10:03:51.850Z,9.07
2023-05-06T10:06:23.137Z,8.99
2023-05-06T10:08:51.125Z,9.04
2023-05-06T10:11:20.464Z,9.49
2023-05-06T10:13:48.890Z,9.55
2023-05-06T10:16:16.136Z,9.56
2023-05-06T10:18:45.869Z,9.48
2023-05-06T10:21:22.041Z,9.32
2023-05-06T10:23:57.417Z,9.16
2023-05-06T10:26:27.534Z,8.94
2023-05-06T10:28:55.015Z,8.92
2023-05-06T10:31:22.284Z,8.97
2023-05-06T10:33:52.127Z,9.02
2023-05-06T10:36:25.364Z,9.14
2023-05-06T10:38:57.252Z,9.34
2023-05-06T10:41:28.137Z,9.47
2023-05-06T10:44:00.257Z,9.54
2023-05-06T10:46:31.023Z,9.63
2023-05-06T10:49:08.616Z,9.87
2023-05-06T10:51:37.930Z,9.49
2023-05-06T10:54:07.050Z,9.64
2023-05-06T10:56:39.448Z,9.31
2023-05-06T10:59:10.089Z,9.45
2023-05-06T11:01:39.710Z,9.32
2023-05-06T11:04:14.092Z,9.29
2023-05-06T11:06:47.253Z,9.25
2023-05-06T11:09:22.731Z,9.21
2023-05-06T11:12:06.503Z,9.55
2023-05-06T11:14:38.881Z,9.55
2023-05-06T11:17:08.014Z,9.70
2023-05-06T11:19:40.125Z,9.62
2023-05-06T11:22:07.416Z,9.64
2023-05-06T11:24:44.300Z,9.65
2023-05-06T11:27:11.652Z,9.50
2023-05-06T11:29:38.847Z,9.39
2023-05-06T11:32:18.594Z,9.26
2023-05-06T11:34:45.689Z,9.21
2023-05-06T11:37:12.787Z,9.36
2023-05-06T11:39:47.596Z,9.22
2023-05-06T11:42:15.850Z,9.29
2023-05-06T11:44:43.115Z,9.25
2023-05-06T11:47:10.306Z,9.09
2023-05-06T11:49:43.752Z,9.06
2023-05-06T11:52:12.799Z,9.22
2023-05-06T11:54:41.971Z,9.40
2023-05-06T11:57:09.489Z,9.43
2023-05-06T11:59:38.598Z,9.35
2023-05-06T12:02:12.931Z,9.32
2023-05-06T12:04:48.038Z,9.17
2023-05-06T12:07:16.523Z,9.09
2023-05-06T12:09:47.592Z,9.01
2023-05-06T12:12:23.816Z,8.88
2023-05-06T12:14:53.630Z,8.88
2023-05-06T12:17:20.816Z,8.62
2023-05-06T12:19:47.938Z,8.63
2023-05-06T12:22:19.563Z,8.72
2023-05-06T12:24:48.527Z,8.64
2023-05-06T12:27:31.312Z,8.67
2023-05-06T12:29:58.675Z,8.64
2023-05-06T12:32:25.760Z,8.65
2023-05-06T12:34:53.025Z,8.80
2023-05-06T12:37:28.622Z,8.85
2023-05-06T12:39:58.890Z,8.75
2023-05-06T12:42:26.924Z,8.81
2023-05-06T12:44:54.217Z,8.82
2023-05-06T12:47:24.338Z,8.85
2023-05-06T12:49:53.310Z,8.88
2023-05-06T12:52:22.932Z,8.89
2023-05-06T12:54:50.353Z,8.91
2023-05-06T12:57:17.521Z,8.90
2023-05-06T12:59:45.971Z,8.91
2023-05-06T13:02:13.754Z,8.93
2023-05-06T13:04:41.139Z,8.93
2023-05-06T13:07:08.493Z,8.93
2023-05-06T13:09:35.510Z,8.91
2023-05-06T13:12:04.642Z,8.90
2023-05-06T13:14:31.733Z,8.98
2023-05-06T13:17:01.399Z,8.90
2023-05-06T13:19:32.895Z,9.02
2023-05-06T13:22:01.487Z,8.97
2023-05-06T13:24:29.353Z,8.98
2023-05-06T13:26:57.467Z,9.00
2023-05-06T13:29:25.204Z,9.02
2023-05-06T13:31:52.587Z,9.08
2023-05-06T13:34:19.888Z,8.99
2023-05-06T13:36:49.374Z,8.97
2023-05-06T13:39:16.934Z,8.94
2023-05-06T13:41:46.894Z,8.90
2023-05-06T13:44:14.144Z,8.76
2023-05-06T13:46:41.760Z,8.82
2023-05-06T13:49:10.003Z,8.77
2023-05-06T13:51:37.196Z,8.68
2023-05-06T13:54:04.549Z,8.57
2023-05-06T13:56:31.875Z,8.56
2023-05-06T13:58:58.849Z,8.39
2023-05-06T14:01:25.987Z,8.34
2023-05-06T14:03:53.160Z,8.38
2023-05-06T14:06:20.520Z,8.42
2023-05-06T14:08:48.087Z,8.56
2023-05-06T14:11:15.060Z,8.63
2023-05-06T14:13:42.068Z,8.64
2023-05-06T14:16:09.189Z,8.56
2023-05-06T14:18:36.230Z,8.50
2023-05-06T14:21:03.785Z,8.48
2023-05-06T14:23:30.875Z,8.36
2023-05-06T14:25:57.960Z,7.88
2023-05-06T14:28:25.012Z,8.23
2023-05-06T14:30:52.116Z,8.28
2023-05-06T14:33:19.572Z,8.22
2023-05-06T14:35:46.660Z,8.32
2023-05-06T14:38:13.793Z,8.33
2023-05-06T14:40:40.851Z,8.28
2023-05-06T14:43:08.028Z,8.19
2023-05-06T14:45:35.831Z,8.17
2023-05-06T14:48:03.098Z,8.13
2023-05-06T14:50:31.255Z,8.10
2023-05-06T14:52:58.304Z,8.11
2023-05-06T14:55:25.952Z,8.03
2023-05-06T14:57:53.126Z,7.99
2023-05-06T15:00:20.663Z,7.91
2023-05-06T15:02:47.743Z,7.77
2023-05-06T15:05:15.178Z,7.60
2023-05-06T15:07:42.315Z,7.60
2023-05-06T15:10:09.601Z,7.60
2023-05-06T15:12:37.482Z,7.67
2023-05-06T15:15:05.564Z,7.73
2023-05-06T15:17:34.038Z,7.68
2023-05-06T15:20:01.344Z,7.72
2023-05-06T15:22:31.900Z,7.70
2023-05-06T15:24:58.950Z,7.72
2023-05-06T15:27:26.002Z,7.72
2023-05-06T15:29:53.022Z,7.76
2023-05-06T15:32:20.184Z,7.76
2023-05-06T15:34:47.275Z,7.62
2023-05-06T15:37:16.611Z,7.74
2023-05-06T15:39:43.639Z,7.77
2023-05-06T15:42:11.107Z,7.79
2023-05-06T15:44:38.161Z,7.75
2023-05-06T15:47:05.364Z,7.73
2023-05-06T15:52:02.288Z,7.72
2023-05-06T15:54:29.361Z,7.67
2023-05-06T15:56:56.872Z,7.74
2023-05-06T15:59:24.032Z,7.66
2023-05-06T16:02:25.443Z,7.65
2023-05-06T16:04:38.259Z,7.36
2023-05-06T16:07:05.760Z,7.74
2023-05-06T16:09:32.786Z,7.78
2023-05-06T16:12:00.040Z,7.69
2023-05-06T16:14:27.039Z,7.69
2023-05-06T16:16:54.145Z,7.61
2023-05-06T16:19:21.361Z,7.63
2023-05-06T16:21:48.497Z,7.60
2023-05-06T16:24:16.177Z,7.60
2023-05-06T16:26:43.265Z,7.42
2023-05-06T16:29:10.543Z,7.56
2023-05-06T16:31:38.145Z,7.52
2023-05-06T16:34:05.419Z,7.49
2023-05-06T16:36:32.493Z,7.32
2023-05-06T16:38:59.578Z,7.39
2023-05-06T16:41:26.564Z,7.39
2023-05-06T16:43:54.134Z,7.31
2023-05-06T16:46:23.374Z,7.25
2023-05-06T16:48:52.308Z,7.34
2023-05-06T16:51:19.477Z,7.29
2023-05-06T16:53:46.642Z,7.08
2023-05-06T16:56:13.908Z,7.15
2023-05-06T16:58:42.579Z,7.09
2023-05-06T17:01:09.836Z,7.09
2023-05-06T17:03:38.019Z,7.06
2023-05-06T17:06:05.389Z,6.97
2023-05-06T17:08:36.053Z,6.89
2023-05-06T17:11:06.911Z,6.83
2023-05-06T17:13:34.756Z,6.78
2023-05-06T17:16:01.900Z,6.83
2023-05-06T17:18:28.971Z,6.76
2023-05-06T17:20:57.138Z,6.71
2023-05-06T17:23:25.281Z,6.48
2023-05-06T17:25:52.354Z,6.52
2023-05-06T17:28:19.425Z,6.52
2023-05-06T17:30:46.862Z,6.50
2023-05-06T17:33:14.034Z,6.48
2023-05-06T17:35:41.109Z,6.45
2023-05-06T17:38:08.406Z,6.31
2023-05-06T17:40:35.447Z,6.38
2023-05-06T17:43:02.687Z,6.29
2023-05-06T17:45:29.837Z,6.31
2023-05-06T17:47:57.013Z,6.32
2023-05-06T17:50:24.146Z,6.18
2023-05-06T17:52:52.964Z,5.98
2023-05-06T17:55:23.810Z,6.20
2023-05-06T17:57:52.685Z,6.19
2023-05-06T18:00:20.018Z,6.12
2023-05-06T18:02:47.597Z,6.20
2023-05-06T18:05:14.957Z,6.04
2023-05-06T18:07:42.359Z,6.03
2023-05-06T18:10:09.962Z,6.06
2023-05-06T18:12:37.257Z,5.99
2023-05-06T18:15:05.227Z,5.91
2023-05-06T18:17:35.209Z,5.90
2023-05-06T18:20:02.436Z,5.82
2023-05-06T18:22:33.068Z,5.81
2023-05-06T18:25:00.155Z,5.81
2023-05-06T18:27:28.161Z,5.81
2023-05-06T18:29:55.331Z,5.81
2023-05-06T18:32:22.529Z,5.86
2023-05-06T18:34:49.604Z,5.86
2023-05-06T18:37:16.771Z,5.76
2023-05-06T18:39:43.904Z,5.68
2023-05-06T18:42:11.468Z,5.54
2023-05-06T18:44:38.539Z,5.51
2023-05-06T18:47:05.780Z,5.49
2023-05-06T18:49:32.947Z,5.52
2023-05-06T18:52:00.130Z,5.50
2023-05-06T18:54:27.178Z,5.48
2023-05-06T18:56:58.696Z,5.46
2023-05-06T18:59:26.207Z,5.37
2023-05-06T19:01:53.271Z,5.18
2023-05-06T19:04:20.456Z,5.16
2023-05-06T19:06:47.536Z,5.08
2023-05-06T19:09:14.708Z,5.09
2023-05-06T19:11:41.778Z,5.06
2023-05-06T19:14:08.864Z,5.11
2023-05-06T19:16:36.171Z,5.09
2023-05-06T19:19:07.102Z,5.09
2023-05-06T19:21:35.106Z,5.10
2023-05-06T19:24:02.195Z,5.09
2023-05-06T19:26:29.352Z,5.12
2023-05-06T19:28:56.552Z,5.11
2023-05-06T19:31:23.685Z,5.07
2023-05-06T19:33:50.804Z,5.05
2023-05-06T19:36:17.834Z,5.02
2023-05-06T19:38:44.853Z,5.10
2023-05-06T19:41:11.997Z,5.08
2023-05-06T19:43:43.300Z,5.08
2023-05-06T19:46:11.649Z,5.05
2023-05-06T19:48:39.215Z,5.01
2023-05-06T19:51:07.072Z,5.04
2023-05-06T19:53:36.675Z,4.98
2023-05-06T19:56:11.755Z,4.95
2023-05-06T19:58:39.667Z,4.95
2023-05-06T20:01:06.785Z,4.65
2023-05-06T20:03:34.145Z,4.87
2023-05-06T20:06:01.631Z,4.87
2023-05-06T20:08:28.675Z,4.80
2023-05-06T20:10:55.926Z,4.81
2023-05-06T20:13:23.001Z,4.84
2023-05-06T20:15:50.220Z,4.86
2023-05-06T20:18:17.327Z,4.89
2023-05-06T20:20:44.641Z,4.75
2023-05-06T20:23:11.836Z,4.62
2023-05-06T20:25:38.860Z,4.10
2023-05-06T20:28:06.947Z,4.46
2023-05-06T20:30:34.615Z,4.51
2023-05-06T20:33:02.141Z,4.50
2023-05-06T20:35:29.445Z,4.38
2023-05-06T20:37:56.593Z,4.41
2023-05-06T20:40:24.982Z,4.42
2023-05-06T20:42:52.024Z,4.36
2023-05-06T20:45:19.076Z,4.37
2023-05-06T20:47:46.236Z,4.41
2023-05-06T20:50:17.297Z,4.45
2023-05-06T20:52:46.160Z,4.33
2023-05-06T20:55:14.836Z,4.47
2023-05-06T20:57:43.662Z,4.36
2023-05-06T21:00:11.720Z,4.08
2023-05-06T21:02:41.209Z,4.31
2023-05-06T21:05:09.478Z,4.24
2023-05-06T21:07:36.786Z,4.31
2023-05-06T21:10:05.868Z,4.31
2023-05-06T21:12:34.196Z,4.44
2023-05-06T21:15:02.077Z,4.41
2023-05-06T21:17:33.387Z,4.39
2023-05-06T21:20:00.656Z,4.34
2023-05-06T21:22:27.642Z,4.25
2023-05-06T21:24:56.075Z,4.29
2023-05-06T21:27:23.069Z,4.28
2023-05-06T21:29:50.070Z,4.19
2023-05-06T21:32:17.295Z,4.23
2023-05-06T21:34:44.365Z,4.11
2023-05-06T21:37:11.730Z,4.08
2023-05-06T21:39:38.723Z,4.11
2023-05-06T21:42:05.871Z,4.10
2023-05-06T21:44:32.918Z,3.99
2023-05-06T21:46:59.922Z,4.02
2023-05-06T21:49:26.919Z,4.01
2023-05-06T21:51:53.955Z,3.93
2023-05-06T21:54:21.212Z,3.99
2023-05-06T21:56:48.270Z,3.92
2023-05-06T21:59:15.281Z,3.92
2023-05-06T22:01:42.365Z,3.90
2023-05-06T22:04:13.501Z,3.87
2023-05-06T22:06:40.760Z,3.90
2023-05-06T22:09:10.458Z,3.90
2023-05-06T22:11:41.026Z,3.84
2023-05-06T22:14:08.283Z,3.82
2023-05-06T22:16:37.953Z,3.74
2023-05-06T22:19:06.287Z,3.75
2023-05-06T22:21:34.961Z,3.72
2023-05-06T22:24:02.109Z,3.70
2023-05-06T22:26:29.290Z,3.71
2023-05-06T22:28:56.668Z,3.69
2023-05-06T22:31:24.880Z,3.73
2023-05-06T22:33:55.671Z,3.77
2023-05-06T22:36:23.543Z,3.79
2023-05-06T22:38:50.582Z,3.76
2023-05-06T22:41:18.403Z,3.65
2023-05-06T22:43:45.617Z,3.66
2023-05-06T22:46:13.122Z,3.57
2023-05-06T22:48:40.614Z,3.67
2023-05-06T22:51:07.930Z,3.69
2023-05-06T22:53:34.958Z,3.66
2023-05-06T22:56:02.030Z,3.46
2023-05-06T22:58:29.644Z,3.66
2023-05-06T23:00:56.791Z,3.67
2023-05-06T23:03:23.950Z,3.66
2023-05-06T23:05:51.201Z,3.52
2023-05-06T23:08:18.223Z,3.61
2023-05-06T23:10:45.640Z,3.43
2023-05-06T23:13:12.804Z,3.43
2023-05-06T23:15:40.185Z,3.54
2023-05-06T23:18:07.386Z,3.48
2023-05-06T23:20:34.500Z,3.49
2023-05-06T23:23:01.610Z,3.14
2023-05-06T23:25:28.628Z,3.54
2023-05-06T23:27:55.678Z,3.58
2023-05-06T23:30:22.689Z,3.54
2023-05-06T23:32:49.895Z,3.56
2023-05-06T23:35:16.974Z,3.59
2023-05-06T23:37:43.998Z,3.51
2023-05-06T23:40:14.003Z,3.54
2023-05-06T23:42:41.140Z,3.44
2023-05-06T23:45:09.257Z,3.35
2023-05-06T23:47:36.665Z,3.43
2023-05-06T23:50:04.000Z,3.42
2023-05-06T23:52:33.636Z,3.33
2023-05-06T23:55:00.866Z,3.28
2023-05-06T23:57:29.270Z,3.18
2023-05-06T23:59:56.595Z,3.16
